sensor_id;sensor_type;location;lat;lon;timestamp;P1;durP1;ratioP1;P2;durP2;ratioP2
70067;SDS011;57425;51.616;6.680;2023-02-15T00:01:06;21.80;;;9.67;;
70067;SDS011;57425;51.616;6.680;2023-02-15T00:03:32;25.53;;;9.10;;
70067;SDS011;57425;51.616;6.680;2023-02-15T00:05:58;26.17;;;10.17;;
70067;SDS011;57425;51.616;6.680;2023-02-15T00:08:24;18.20;;;8.43;;
70067;SDS011;57425;51.616;6.680;2023-02-15T00:10:49;19.70;;;8.27;;
70067;SDS011;57425;51.616;6.680;2023-02-15T00:13:15;19.03;;;9.33;;
70067;SDS011;57425;51.616;6.680;2023-02-15T00:15:40;28.20;;;9.47;;
70067;SDS011;57425;51.616;6.680;2023-02-15T00:18:06;20.70;;;8.73;;
70067;SDS011;57425;51.616;6.680;2023-02-15T00:20:31;22.70;;;9.27;;
70067;SDS011;57425;51.616;6.680;2023-02-15T00:22:58;20.83;;;9.00;;
70067;SDS011;57425;51.616;6.680;2023-02-15T00:25:24;20.77;;;8.90;;
70067;SDS011;57425;51.616;6.680;2023-02-15T00:27:50;31.33;;;10.27;;
70067;SDS011;57425;51.616;6.680;2023-02-15T00:30:15;18.50;;;7.97;;
70067;SDS011;57425;51.616;6.680;2023-02-15T00:32:41;22.33;;;9.13;;
70067;SDS011;57425;51.616;6.680;2023-02-15T00:35:07;27.80;;;8.33;;
70067;SDS011;57425;51.616;6.680;2023-02-15T00:37:34;26.27;;;10.23;;
70067;SDS011;57425;51.616;6.680;2023-02-15T00:39:59;22.27;;;8.40;;
70067;SDS011;57425;51.616;6.680;2023-02-15T00:42:25;22.40;;;8.97;;
70067;SDS011;57425;51.616;6.680;2023-02-15T00:44:51;18.60;;;8.10;;
70067;SDS011;57425;51.616;6.680;2023-02-15T00:47:16;24.03;;;9.97;;
70067;SDS011;57425;51.616;6.680;2023-02-15T00:49:42;19.63;;;8.80;;
70067;SDS011;57425;51.616;6.680;2023-02-15T00:52:07;24.53;;;9.83;;
70067;SDS011;57425;51.616;6.680;2023-02-15T00:54:33;22.70;;;9.20;;
70067;SDS011;57425;51.616;6.680;2023-02-15T00:56:59;20.93;;;8.23;;
70067;SDS011;57425;51.616;6.680;2023-02-15T00:59:25;20.47;;;9.13;;
70067;SDS011;57425;51.616;6.680;2023-02-15T01:01:51;22.30;;;8.80;;
70067;SDS011;57425;51.616;6.680;2023-02-15T01:04:17;19.97;;;9.10;;
70067;SDS011;57425;51.616;6.680;2023-02-15T01:06:42;25.10;;;9.87;;
70067;SDS011;57425;51.616;6.680;2023-02-15T01:09:08;20.00;;;9.43;;
70067;SDS011;57425;51.616;6.680;2023-02-15T01:11:33;22.73;;;9.03;;
70067;SDS011;57425;51.616;6.680;2023-02-15T01:13:59;20.90;;;8.63;;
70067;SDS011;57425;51.616;6.680;2023-02-15T01:16:26;24.77;;;9.07;;
70067;SDS011;57425;51.616;6.680;2023-02-15T01:18:53;23.00;;;9.20;;
70067;SDS011;57425;51.616;6.680;2023-02-15T01:21:20;21.63;;;8.57;;
70067;SDS011;57425;51.616;6.680;2023-02-15T01:23:47;20.60;;;8.63;;
70067;SDS011;57425;51.616;6.680;2023-02-15T01:26:12;29.43;;;8.83;;
70067;SDS011;57425;51.616;6.680;2023-02-15T01:28:38;19.87;;;7.63;;
70067;SDS011;57425;51.616;6.680;2023-02-15T01:31:05;18.67;;;8.60;;
70067;SDS011;57425;51.616;6.680;2023-02-15T01:33:32;22.30;;;8.30;;
70067;SDS011;57425;51.616;6.680;2023-02-15T01:35:58;18.03;;;7.27;;
70067;SDS011;57425;51.616;6.680;2023-02-15T01:38:24;23.70;;;8.60;;
70067;SDS011;57425;51.616;6.680;2023-02-15T01:40:51;15.97;;;7.13;;
70067;SDS011;57425;51.616;6.680;2023-02-15T01:43:18;22.33;;;9.03;;
70067;SDS011;57425;51.616;6.680;2023-02-15T01:45:43;18.87;;;9.40;;
70067;SDS011;57425;51.616;6.680;2023-02-15T01:48:18;21.17;;;8.17;;
70067;SDS011;57425;51.616;6.680;2023-02-15T01:50:54;20.73;;;8.97;;
70067;SDS011;57425;51.616;6.680;2023-02-15T01:53:36;18.33;;;8.67;;
70067;SDS011;57425;51.616;6.680;2023-02-15T01:56:26;18.97;;;8.63;;
70067;SDS011;57425;51.616;6.680;2023-02-15T01:58:56;20.80;;;9.63;;
70067;SDS011;57425;51.616;6.680;2023-02-15T02:01:27;20.57;;;7.80;;
70067;SDS011;57425;51.616;6.680;2023-02-15T02:06:49;19.97;;;8.40;;
70067;SDS011;57425;51.616;6.680;2023-02-15T02:09:15;25.23;;;9.47;;
70067;SDS011;57425;51.616;6.680;2023-02-15T02:11:41;20.87;;;8.43;;
70067;SDS011;57425;51.616;6.680;2023-02-15T02:14:11;20.23;;;9.33;;
70067;SDS011;57425;51.616;6.680;2023-02-15T02:16:40;19.57;;;8.23;;
70067;SDS011;57425;51.616;6.680;2023-02-15T02:19:31;23.80;;;8.77;;
70067;SDS011;57425;51.616;6.680;2023-02-15T02:35:43;19.07;;;8.60;;
70067;SDS011;57425;51.616;6.680;2023-02-15T02:38:21;22.30;;;8.43;;
70067;SDS011;57425;51.616;6.680;2023-02-15T02:46:24;21.30;;;9.20;;
70067;SDS011;57425;51.616;6.680;2023-02-15T02:48:53;19.10;;;9.03;;
70067;SDS011;57425;51.616;6.680;2023-02-15T02:51:19;27.13;;;9.83;;
70067;SDS011;57425;51.616;6.680;2023-02-15T02:53:51;20.67;;;9.07;;
70067;SDS011;57425;51.616;6.680;2023-02-15T02:56:27;23.27;;;9.47;;
70067;SDS011;57425;51.616;6.680;2023-02-15T03:04:12;22.43;;;9.83;;
70067;SDS011;57425;51.616;6.680;2023-02-15T03:06:52;21.57;;;9.00;;
70067;SDS011;57425;51.616;6.680;2023-02-15T03:09:25;17.07;;;8.30;;
70067;SDS011;57425;51.616;6.680;2023-02-15T03:14:40;24.37;;;8.97;;
70067;SDS011;57425;51.616;6.680;2023-02-15T03:17:09;16.73;;;7.40;;
70067;SDS011;57425;51.616;6.680;2023-02-15T03:19:37;19.80;;;8.07;;
70067;SDS011;57425;51.616;6.680;2023-02-15T03:22:08;18.47;;;8.90;;
70067;SDS011;57425;51.616;6.680;2023-02-15T03:27:10;18.27;;;7.70;;
70067;SDS011;57425;51.616;6.680;2023-02-15T03:29:42;18.93;;;8.43;;
70067;SDS011;57425;51.616;6.680;2023-02-15T03:32:10;20.03;;;8.60;;
70067;SDS011;57425;51.616;6.680;2023-02-15T03:34:38;23.00;;;8.10;;
70067;SDS011;57425;51.616;6.680;2023-02-15T03:37:07;27.70;;;8.17;;
70067;SDS011;57425;51.616;6.680;2023-02-15T03:39:45;20.77;;;8.43;;
70067;SDS011;57425;51.616;6.680;2023-02-15T03:45:02;20.17;;;9.05;;
70067;SDS011;57425;51.616;6.680;2023-02-15T03:47:30;22.43;;;9.47;;
70067;SDS011;57425;51.616;6.680;2023-02-15T03:50:01;18.80;;;8.03;;
70067;SDS011;57425;51.616;6.680;2023-02-15T03:52:50;19.07;;;8.27;;
70067;SDS011;57425;51.616;6.680;2023-02-15T03:55:17;25.57;;;9.73;;
70067;SDS011;57425;51.616;6.680;2023-02-15T03:57:43;24.70;;;9.50;;
70067;SDS011;57425;51.616;6.680;2023-02-15T04:00:28;19.83;;;7.80;;
70067;SDS011;57425;51.616;6.680;2023-02-15T04:03:21;24.67;;;8.70;;
70067;SDS011;57425;51.616;6.680;2023-02-15T04:05:53;20.47;;;8.10;;
70067;SDS011;57425;51.616;6.680;2023-02-15T04:08:18;18.27;;;8.13;;
70067;SDS011;57425;51.616;6.680;2023-02-15T04:10:44;20.30;;;9.60;;
70067;SDS011;57425;51.616;6.680;2023-02-15T04:13:24;21.37;;;9.37;;
70067;SDS011;57425;51.616;6.680;2023-02-15T04:15:55;26.87;;;9.30;;
70067;SDS011;57425;51.616;6.680;2023-02-15T04:21:21;25.30;;;9.13;;
70067;SDS011;57425;51.616;6.680;2023-02-15T04:24:07;28.10;;;9.33;;
70067;SDS011;57425;51.616;6.680;2023-02-15T04:26:52;19.23;;;9.10;;
70067;SDS011;57425;51.616;6.680;2023-02-15T04:29:18;23.30;;;9.37;;
70067;SDS011;57425;51.616;6.680;2023-02-15T04:31:45;19.77;;;9.07;;
70067;SDS011;57425;51.616;6.680;2023-02-15T04:34:12;19.67;;;9.07;;
70067;SDS011;57425;51.616;6.680;2023-02-15T04:36:38;21.77;;;9.77;;
70067;SDS011;57425;51.616;6.680;2023-02-15T04:39:04;19.40;;;8.47;;
70067;SDS011;57425;51.616;6.680;2023-02-15T04:41:32;21.27;;;8.90;;
70067;SDS011;57425;51.616;6.680;2023-02-15T04:43:58;25.90;;;9.33;;
70067;SDS011;57425;51.616;6.680;2023-02-15T04:46:25;21.90;;;9.23;;
70067;SDS011;57425;51.616;6.680;2023-02-15T04:48:51;25.13;;;9.40;;
70067;SDS011;57425;51.616;6.680;2023-02-15T04:51:17;23.30;;;10.10;;
70067;SDS011;57425;51.616;6.680;2023-02-15T04:53:43;24.20;;;10.27;;
70067;SDS011;57425;51.616;6.680;2023-02-15T04:56:08;21.10;;;10.13;;
70067;SDS011;57425;51.616;6.680;2023-02-15T04:58:34;25.60;;;9.23;;
70067;SDS011;57425;51.616;6.680;2023-02-15T05:01:00;36.17;;;10.30;;
70067;SDS011;57425;51.616;6.680;2023-02-15T05:03:26;24.70;;;9.77;;
70067;SDS011;57425;51.616;6.680;2023-02-15T05:05:52;20.87;;;9.17;;
70067;SDS011;57425;51.616;6.680;2023-02-15T05:08:17;24.60;;;8.97;;
70067;SDS011;57425;51.616;6.680;2023-02-15T05:10:43;26.10;;;9.90;;
70067;SDS011;57425;51.616;6.680;2023-02-15T05:13:08;22.63;;;9.77;;
70067;SDS011;57425;51.616;6.680;2023-02-15T05:15:34;19.57;;;9.77;;
70067;SDS011;57425;51.616;6.680;2023-02-15T05:18:00;24.93;;;10.53;;
70067;SDS011;57425;51.616;6.680;2023-02-15T05:20:26;22.87;;;10.33;;
70067;SDS011;57425;51.616;6.680;2023-02-15T05:22:55;24.13;;;9.13;;
70067;SDS011;57425;51.616;6.680;2023-02-15T05:25:21;18.60;;;8.07;;
70067;SDS011;57425;51.616;6.680;2023-02-15T05:28:05;17.80;;;8.47;;
70067;SDS011;57425;51.616;6.680;2023-02-15T05:30:49;25.33;;;10.17;;
70067;SDS011;57425;51.616;6.680;2023-02-15T05:33:22;20.83;;;7.83;;
70067;SDS011;57425;51.616;6.680;2023-02-15T05:35:48;23.03;;;9.60;;
70067;SDS011;57425;51.616;6.680;2023-02-15T05:38:14;25.30;;;9.60;;
70067;SDS011;57425;51.616;6.680;2023-02-15T05:40:39;25.67;;;10.97;;
70067;SDS011;57425;51.616;6.680;2023-02-15T05:43:05;23.20;;;9.87;;
70067;SDS011;57425;51.616;6.680;2023-02-15T05:45:30;24.03;;;8.87;;
70067;SDS011;57425;51.616;6.680;2023-02-15T05:47:56;24.33;;;9.13;;
70067;SDS011;57425;51.616;6.680;2023-02-15T05:50:23;27.17;;;10.73;;
70067;SDS011;57425;51.616;6.680;2023-02-15T05:52:50;23.03;;;10.47;;
70067;SDS011;57425;51.616;6.680;2023-02-15T05:55:16;23.50;;;10.43;;
70067;SDS011;57425;51.616;6.680;2023-02-15T05:57:42;22.00;;;9.27;;
70067;SDS011;57425;51.616;6.680;2023-02-15T06:00:07;24.30;;;9.57;;
70067;SDS011;57425;51.616;6.680;2023-02-15T06:02:35;23.97;;;10.53;;
70067;SDS011;57425;51.616;6.680;2023-02-15T06:05:01;24.03;;;9.53;;
70067;SDS011;57425;51.616;6.680;2023-02-15T06:07:28;24.50;;;9.90;;
70067;SDS011;57425;51.616;6.680;2023-02-15T06:09:54;28.87;;;11.10;;
70067;SDS011;57425;51.616;6.680;2023-02-15T06:12:19;26.40;;;10.50;;
70067;SDS011;57425;51.616;6.680;2023-02-15T06:14:45;22.43;;;9.23;;
70067;SDS011;57425;51.616;6.680;2023-02-15T06:17:11;23.03;;;10.37;;
70067;SDS011;57425;51.616;6.680;2023-02-15T06:19:37;28.60;;;10.13;;
70067;SDS011;57425;51.616;6.680;2023-02-15T06:22:03;22.13;;;8.33;;
70067;SDS011;57425;51.616;6.680;2023-02-15T06:24:28;27.63;;;9.70;;
70067;SDS011;57425;51.616;6.680;2023-02-15T06:26:54;23.93;;;10.83;;
70067;SDS011;57425;51.616;6.680;2023-02-15T06:29:20;27.83;;;11.47;;
70067;SDS011;57425;51.616;6.680;2023-02-15T06:31:45;29.33;;;11.00;;
70067;SDS011;57425;51.616;6.680;2023-02-15T06:34:11;25.03;;;10.87;;
70067;SDS011;57425;51.616;6.680;2023-02-15T06:36:37;22.80;;;10.67;;
70067;SDS011;57425;51.616;6.680;2023-02-15T06:39:03;23.60;;;9.27;;
70067;SDS011;57425;51.616;6.680;2023-02-15T06:41:29;27.60;;;9.63;;
70067;SDS011;57425;51.616;6.680;2023-02-15T06:43:54;31.40;;;11.77;;
70067;SDS011;57425;51.616;6.680;2023-02-15T06:46:21;24.90;;;10.70;;
70067;SDS011;57425;51.616;6.680;2023-02-15T06:48:46;26.03;;;11.90;;
70067;SDS011;57425;51.616;6.680;2023-02-15T06:51:12;30.60;;;11.77;;
70067;SDS011;57425;51.616;6.680;2023-02-15T06:53:38;27.23;;;11.63;;
70067;SDS011;57425;51.616;6.680;2023-02-15T06:56:06;30.10;;;11.53;;
70067;SDS011;57425;51.616;6.680;2023-02-15T06:58:34;27.03;;;10.87;;
70067;SDS011;57425;51.616;6.680;2023-02-15T07:01:04;28.00;;;11.43;;
70067;SDS011;57425;51.616;6.680;2023-02-15T07:03:30;32.17;;;11.50;;
70067;SDS011;57425;51.616;6.680;2023-02-15T07:05:56;29.93;;;11.43;;
70067;SDS011;57425;51.616;6.680;2023-02-15T07:08:24;29.73;;;12.13;;
70067;SDS011;57425;51.616;6.680;2023-02-15T07:10:50;27.80;;;10.57;;
70067;SDS011;57425;51.616;6.680;2023-02-15T07:13:17;29.90;;;10.43;;
70067;SDS011;57425;51.616;6.680;2023-02-15T07:15:44;25.10;;;11.40;;
70067;SDS011;57425;51.616;6.680;2023-02-15T07:18:10;26.00;;;10.30;;
70067;SDS011;57425;51.616;6.680;2023-02-15T07:20:36;27.67;;;11.73;;
70067;SDS011;57425;51.616;6.680;2023-02-15T07:23:03;29.20;;;11.47;;
70067;SDS011;57425;51.616;6.680;2023-02-15T07:25:29;30.03;;;12.57;;
70067;SDS011;57425;51.616;6.680;2023-02-15T07:27:58;34.47;;;12.37;;
70067;SDS011;57425;51.616;6.680;2023-02-15T07:30:25;29.90;;;11.10;;
70067;SDS011;57425;51.616;6.680;2023-02-15T07:32:54;27.03;;;11.93;;
70067;SDS011;57425;51.616;6.680;2023-02-15T07:35:52;30.03;;;11.43;;
70067;SDS011;57425;51.616;6.680;2023-02-15T07:38:19;36.33;;;12.47;;
70067;SDS011;57425;51.616;6.680;2023-02-15T07:40:45;26.77;;;11.50;;
70067;SDS011;57425;51.616;6.680;2023-02-15T07:43:11;32.63;;;11.60;;
70067;SDS011;57425;51.616;6.680;2023-02-15T07:45:37;31.17;;;12.13;;
70067;SDS011;57425;51.616;6.680;2023-02-15T07:48:04;38.67;;;12.27;;
70067;SDS011;57425;51.616;6.680;2023-02-15T07:50:30;25.10;;;11.40;;
70067;SDS011;57425;51.616;6.680;2023-02-15T07:52:56;33.80;;;13.33;;
70067;SDS011;57425;51.616;6.680;2023-02-15T07:55:22;26.33;;;11.97;;
70067;SDS011;57425;51.616;6.680;2023-02-15T07:57:48;29.77;;;11.77;;
70067;SDS011;57425;51.616;6.680;2023-02-15T08:00:16;36.80;;;11.73;;
70067;SDS011;57425;51.616;6.680;2023-02-15T08:02:49;24.50;;;10.83;;
70067;SDS011;57425;51.616;6.680;2023-02-15T08:05:39;25.60;;;11.73;;
70067;SDS011;57425;51.616;6.680;2023-02-15T08:08:07;31.60;;;12.00;;
70067;SDS011;57425;51.616;6.680;2023-02-15T08:10:34;26.97;;;11.30;;
70067;SDS011;57425;51.616;6.680;2023-02-15T08:13:19;25.47;;;11.60;;
70067;SDS011;57425;51.616;6.680;2023-02-15T08:15:51;28.57;;;10.97;;
70067;SDS011;57425;51.616;6.680;2023-02-15T08:18:16;25.43;;;10.47;;
70067;SDS011;57425;51.616;6.680;2023-02-15T08:20:42;28.47;;;11.77;;
70067;SDS011;57425;51.616;6.680;2023-02-15T08:23:13;25.30;;;10.30;;
70067;SDS011;57425;51.616;6.680;2023-02-15T08:25:38;31.53;;;12.03;;
70067;SDS011;57425;51.616;6.680;2023-02-15T08:28:04;28.33;;;11.60;;
70067;SDS011;57425;51.616;6.680;2023-02-15T08:30:30;30.30;;;11.53;;
70067;SDS011;57425;51.616;6.680;2023-02-15T08:32:55;23.97;;;9.53;;
70067;SDS011;57425;51.616;6.680;2023-02-15T08:35:21;27.17;;;11.20;;
70067;SDS011;57425;51.616;6.680;2023-02-15T08:37:46;25.13;;;10.63;;
70067;SDS011;57425;51.616;6.680;2023-02-15T08:40:12;25.57;;;10.87;;
70067;SDS011;57425;51.616;6.680;2023-02-15T08:42:38;24.63;;;10.80;;
70067;SDS011;57425;51.616;6.680;2023-02-15T08:45:04;25.07;;;9.80;;
70067;SDS011;57425;51.616;6.680;2023-02-15T08:47:30;26.40;;;10.67;;
70067;SDS011;57425;51.616;6.680;2023-02-15T08:49:55;27.60;;;11.33;;
70067;SDS011;57425;51.616;6.680;2023-02-15T08:52:21;24.40;;;9.60;;
70067;SDS011;57425;51.616;6.680;2023-02-15T08:54:46;27.10;;;10.60;;
70067;SDS011;57425;51.616;6.680;2023-02-15T08:57:12;26.90;;;9.73;;
70067;SDS011;57425;51.616;6.680;2023-02-15T08:59:38;29.17;;;10.47;;
70067;SDS011;57425;51.616;6.680;2023-02-15T09:02:03;28.33;;;10.43;;
70067;SDS011;57425;51.616;6.680;2023-02-15T09:04:29;26.83;;;9.07;;
70067;SDS011;57425;51.616;6.680;2023-02-15T09:06:54;20.73;;;8.83;;
70067;SDS011;57425;51.616;6.680;2023-02-15T09:09:20;25.23;;;9.47;;
70067;SDS011;57425;51.616;6.680;2023-02-15T09:11:48;28.70;;;11.43;;
70067;SDS011;57425;51.616;6.680;2023-02-15T09:14:16;28.77;;;11.63;;
70067;SDS011;57425;51.616;6.680;2023-02-15T09:16:46;24.83;;;10.30;;
70067;SDS011;57425;51.616;6.680;2023-02-15T09:19:14;26.67;;;9.97;;
70067;SDS011;57425;51.616;6.680;2023-02-15T09:21:40;23.80;;;9.50;;
70067;SDS011;57425;51.616;6.680;2023-02-15T09:24:10;32.23;;;10.97;;
70067;SDS011;57425;51.616;6.680;2023-02-15T09:26:39;24.93;;;9.43;;
70067;SDS011;57425;51.616;6.680;2023-02-15T09:29:07;29.83;;;10.10;;
70067;SDS011;57425;51.616;6.680;2023-02-15T09:31:34;26.17;;;11.47;;
70067;SDS011;57425;51.616;6.680;2023-02-15T09:34:03;27.17;;;10.03;;
70067;SDS011;57425;51.616;6.680;2023-02-15T09:36:30;25.23;;;10.80;;
70067;SDS011;57425;51.616;6.680;2023-02-15T09:39:17;23.10;;;9.80;;
70067;SDS011;57425;51.616;6.680;2023-02-15T09:47:52;26.43;;;9.47;;
70067;SDS011;57425;51.616;6.680;2023-02-15T09:50:22;23.13;;;9.33;;
70067;SDS011;57425;51.616;6.680;2023-02-15T10:15:16;23.30;;;9.67;;
70067;SDS011;57425;51.616;6.680;2023-02-15T10:26:22;21.47;;;10.47;;
70067;SDS011;57425;51.616;6.680;2023-02-15T10:28:53;29.10;;;10.93;;
70067;SDS011;57425;51.616;6.680;2023-02-15T10:31:28;24.57;;;10.57;;
70067;SDS011;57425;51.616;6.680;2023-02-15T10:34:16;35.53;;;10.50;;
70067;SDS011;57425;51.616;6.680;2023-02-15T10:39:42;30.27;;;11.63;;
70067;SDS011;57425;51.616;6.680;2023-02-15T10:42:42;25.63;;;11.03;;
70067;SDS011;57425;51.616;6.680;2023-02-15T10:53:22;28.07;;;10.47;;
70067;SDS011;57425;51.616;6.680;2023-02-15T11:07:48;32.97;;;13.33;;
70067;SDS011;57425;51.616;6.680;2023-02-15T11:13:13;35.83;;;11.18;;
70067;SDS011;57425;51.616;6.680;2023-02-15T11:15:46;40.27;;;12.53;;
70067;SDS011;57425;51.616;6.680;2023-02-15T11:23:43;21.48;;;9.38;;
70067;SDS011;57425;51.616;6.680;2023-02-15T11:26:29;24.73;;;9.47;;
70067;SDS011;57425;51.616;6.680;2023-02-15T11:29:01;31.37;;;10.43;;
70067;SDS011;57425;51.616;6.680;2023-02-15T11:31:42;29.90;;;11.50;;
70067;SDS011;57425;51.616;6.680;2023-02-15T11:34:32;30.37;;;10.50;;
70067;SDS011;57425;51.616;6.680;2023-02-15T11:37:00;25.60;;;10.77;;
70067;SDS011;57425;51.616;6.680;2023-02-15T11:39:32;29.10;;;10.38;;
70067;SDS011;57425;51.616;6.680;2023-02-15T11:42:01;38.10;;;10.00;;
70067;SDS011;57425;51.616;6.680;2023-02-15T11:44:32;24.40;;;10.53;;
70067;SDS011;57425;51.616;6.680;2023-02-15T11:47:09;22.67;;;10.13;;
70067;SDS011;57425;51.616;6.680;2023-02-15T11:49:36;23.50;;;10.63;;
70067;SDS011;57425;51.616;6.680;2023-02-15T11:52:05;20.93;;;9.40;;
70067;SDS011;57425;51.616;6.680;2023-02-15T11:54:33;23.60;;;9.73;;
70067;SDS011;57425;51.616;6.680;2023-02-15T11:59:58;28.83;;;9.67;;
70067;SDS011;57425;51.616;6.680;2023-02-15T12:02:35;26.87;;;10.60;;
70067;SDS011;57425;51.616;6.680;2023-02-15T12:05:05;26.10;;;10.87;;
70067;SDS011;57425;51.616;6.680;2023-02-15T12:10:27;32.87;;;11.30;;
70067;SDS011;57425;51.616;6.680;2023-02-15T12:13:09;34.67;;;9.77;;
70067;SDS011;57425;51.616;6.680;2023-02-15T12:18:20;26.70;;;10.17;;
70067;SDS011;57425;51.616;6.680;2023-02-15T12:20:59;26.80;;;10.27;;
70067;SDS011;57425;51.616;6.680;2023-02-15T12:23:30;26.97;;;10.00;;
70067;SDS011;57425;51.616;6.680;2023-02-15T12:25:57;34.07;;;11.00;;
70067;SDS011;57425;51.616;6.680;2023-02-15T12:30:52;24.90;;;9.50;;
70067;SDS011;57425;51.616;6.680;2023-02-15T12:33:27;29.43;;;11.73;;
70067;SDS011;57425;51.616;6.680;2023-02-15T12:35:57;26.53;;;11.47;;
70067;SDS011;57425;51.616;6.680;2023-02-15T12:38:43;21.30;;;9.30;;
70067;SDS011;57425;51.616;6.680;2023-02-15T12:41:30;29.13;;;10.80;;
70067;SDS011;57425;51.616;6.680;2023-02-15T12:44:03;23.63;;;10.27;;
70067;SDS011;57425;51.616;6.680;2023-02-15T12:46:41;21.77;;;8.63;;
70067;SDS011;57425;51.616;6.680;2023-02-15T12:54:32;27.70;;;9.63;;
70067;SDS011;57425;51.616;6.680;2023-02-15T12:57:47;25.10;;;10.07;;
70067;SDS011;57425;51.616;6.680;2023-02-15T13:08:11;33.13;;;9.87;;
70067;SDS011;57425;51.616;6.680;2023-02-15T13:10:40;25.30;;;10.17;;
70067;SDS011;57425;51.616;6.680;2023-02-15T13:13:24;31.87;;;11.30;;
70067;SDS011;57425;51.616;6.680;2023-02-15T13:15:54;25.90;;;10.77;;
70067;SDS011;57425;51.616;6.680;2023-02-15T13:18:29;24.87;;;9.50;;
70067;SDS011;57425;51.616;6.680;2023-02-15T13:21:04;28.07;;;10.83;;
70067;SDS011;57425;51.616;6.680;2023-02-15T13:23:37;22.77;;;10.53;;
70067;SDS011;57425;51.616;6.680;2023-02-15T13:26:04;24.43;;;10.00;;
70067;SDS011;57425;51.616;6.680;2023-02-15T13:28:44;30.07;;;12.00;;
70067;SDS011;57425;51.616;6.680;2023-02-15T13:31:17;31.00;;;11.53;;
70067;SDS011;57425;51.616;6.680;2023-02-15T13:33:55;31.77;;;10.90;;
70067;SDS011;57425;51.616;6.680;2023-02-15T13:36:36;27.00;;;10.77;;
70067;SDS011;57425;51.616;6.680;2023-02-15T13:39:22;24.60;;;9.53;;
70067;SDS011;57425;51.616;6.680;2023-02-15T14:08:12;27.77;;;10.13;;
70067;SDS011;57425;51.616;6.680;2023-02-15T14:15:44;33.50;;;10.93;;
70067;SDS011;57425;51.616;6.680;2023-02-15T14:20:47;27.57;;;10.87;;
70067;SDS011;57425;51.616;6.680;2023-02-15T14:26:03;28.65;;;11.32;;
70067;SDS011;57425;51.616;6.680;2023-02-15T14:28:58;28.27;;;10.83;;
70067;SDS011;57425;51.616;6.680;2023-02-15T14:31:40;23.23;;;10.63;;
70067;SDS011;57425;51.616;6.680;2023-02-15T14:34:17;29.50;;;10.60;;
70067;SDS011;57425;51.616;6.680;2023-02-15T14:36:52;22.95;;;9.75;;
70067;SDS011;57425;51.616;6.680;2023-02-15T14:42:25;30.83;;;11.27;;
70067;SDS011;57425;51.616;6.680;2023-02-15T14:47:32;26.70;;;10.60;;
70067;SDS011;57425;51.616;6.680;2023-02-15T14:53:24;28.60;;;11.83;;
70067;SDS011;57425;51.616;6.680;2023-02-15T14:56:06;43.10;;;10.70;;
70067;SDS011;57425;51.616;6.680;2023-02-15T14:58:35;27.67;;;10.40;;
70067;SDS011;57425;51.616;6.680;2023-02-15T15:01:05;23.50;;;11.00;;
70067;SDS011;57425;51.616;6.680;2023-02-15T15:03:33;37.20;;;11.40;;
70067;SDS011;57425;51.616;6.680;2023-02-15T15:06:01;38.97;;;10.73;;
70067;SDS011;57425;51.616;6.680;2023-02-15T15:08:31;24.60;;;10.50;;
70067;SDS011;57425;51.616;6.680;2023-02-15T15:18:49;25.47;;;9.97;;
70067;SDS011;57425;51.616;6.680;2023-02-15T15:39:05;20.77;;;9.70;;
70067;SDS011;57425;51.616;6.680;2023-02-15T15:47:00;27.90;;;10.33;;
70067;SDS011;57425;51.616;6.680;2023-02-15T15:49:56;27.37;;;11.23;;
70067;SDS011;57425;51.616;6.680;2023-02-15T15:52:23;25.10;;;10.23;;
70067;SDS011;57425;51.616;6.680;2023-02-15T15:54:52;23.27;;;11.03;;
70067;SDS011;57425;51.616;6.680;2023-02-15T16:02:57;31.33;;;10.93;;
70067;SDS011;57425;51.616;6.680;2023-02-15T16:05:23;32.63;;;11.87;;
70067;SDS011;57425;51.616;6.680;2023-02-15T16:07:49;42.30;;;11.00;;
70067;SDS011;57425;51.616;6.680;2023-02-15T16:10:25;29.77;;;11.73;;
70067;SDS011;57425;51.616;6.680;2023-02-15T16:12:52;37.27;;;13.23;;
70067;SDS011;57425;51.616;6.680;2023-02-15T16:15:20;32.50;;;12.07;;
70067;SDS011;57425;51.616;6.680;2023-02-15T16:17:54;26.90;;;11.10;;
70067;SDS011;57425;51.616;6.680;2023-02-15T16:23:02;24.40;;;10.53;;
70067;SDS011;57425;51.616;6.680;2023-02-15T16:28:49;30.10;;;10.30;;
70067;SDS011;57425;51.616;6.680;2023-02-15T16:31:20;25.93;;;11.43;;
70067;SDS011;57425;51.616;6.680;2023-02-15T16:33:47;32.67;;;10.67;;
70067;SDS011;57425;51.616;6.680;2023-02-15T16:36:24;25.40;;;11.00;;
70067;SDS011;57425;51.616;6.680;2023-02-15T16:43:47;27.47;;;10.93;;
70067;SDS011;57425;51.616;6.680;2023-02-15T16:49:07;36.67;;;12.33;;
70067;SDS011;57425;51.616;6.680;2023-02-15T16:52:13;32.07;;;11.13;;
70067;SDS011;57425;51.616;6.680;2023-02-15T16:54:41;26.40;;;10.70;;
70067;SDS011;57425;51.616;6.680;2023-02-15T16:57:14;30.27;;;10.90;;
70067;SDS011;57425;51.616;6.680;2023-02-15T16:59:45;28.80;;;12.37;;
70067;SDS011;57425;51.616;6.680;2023-02-15T17:02:21;23.50;;;10.23;;
70067;SDS011;57425;51.616;6.680;2023-02-15T17:10:39;27.23;;;9.90;;
70067;SDS011;57425;51.616;6.680;2023-02-15T17:13:11;26.27;;;10.47;;
70067;SDS011;57425;51.616;6.680;2023-02-15T17:15:44;29.00;;;10.33;;
70067;SDS011;57425;51.616;6.680;2023-02-15T17:18:30;25.60;;;10.17;;
70067;SDS011;57425;51.616;6.680;2023-02-15T17:20:59;20.27;;;9.13;;
70067;SDS011;57425;51.616;6.680;2023-02-15T17:23:34;26.80;;;9.43;;
70067;SDS011;57425;51.616;6.680;2023-02-15T17:26:21;32.40;;;10.80;;
70067;SDS011;57425;51.616;6.680;2023-02-15T17:28:53;30.00;;;11.70;;
70067;SDS011;57425;51.616;6.680;2023-02-15T17:31:25;28.80;;;10.37;;
70067;SDS011;57425;51.616;6.680;2023-02-15T17:33:56;30.42;;;9.90;;
70067;SDS011;57425;51.616;6.680;2023-02-15T17:36:24;26.00;;;9.63;;
70067;SDS011;57425;51.616;6.680;2023-02-15T17:41:25;26.50;;;10.57;;
70067;SDS011;57425;51.616;6.680;2023-02-15T17:43:56;33.37;;;10.13;;
70067;SDS011;57425;51.616;6.680;2023-02-15T17:46:23;27.70;;;10.03;;
70067;SDS011;57425;51.616;6.680;2023-02-15T17:48:53;23.50;;;9.83;;
70067;SDS011;57425;51.616;6.680;2023-02-15T17:51:20;23.77;;;10.00;;
70067;SDS011;57425;51.616;6.680;2023-02-15T17:53:46;27.07;;;10.13;;
70067;SDS011;57425;51.616;6.680;2023-02-15T17:56:32;23.30;;;9.63;;
70067;SDS011;57425;51.616;6.680;2023-02-15T17:58:58;25.87;;;9.93;;
70067;SDS011;57425;51.616;6.680;2023-02-15T18:01:23;26.03;;;9.63;;
70067;SDS011;57425;51.616;6.680;2023-02-15T18:04:08;21.40;;;10.30;;
70067;SDS011;57425;51.616;6.680;2023-02-15T18:06:55;28.73;;;10.17;;
70067;SDS011;57425;51.616;6.680;2023-02-15T18:09:40;20.53;;;10.80;;
70067;SDS011;57425;51.616;6.680;2023-02-15T18:12:28;17.77;;;8.80;;
70067;SDS011;57425;51.616;6.680;2023-02-15T18:14:56;17.30;;;9.20;;
70067;SDS011;57425;51.616;6.680;2023-02-15T18:17:32;27.47;;;10.20;;
70067;SDS011;57425;51.616;6.680;2023-02-15T18:19:59;23.73;;;9.57;;
70067;SDS011;57425;51.616;6.680;2023-02-15T18:22:29;24.83;;;10.00;;
70067;SDS011;57425;51.616;6.680;2023-02-15T18:24:56;24.27;;;10.53;;
70067;SDS011;57425;51.616;6.680;2023-02-15T18:27:22;19.03;;;9.70;;
70067;SDS011;57425;51.616;6.680;2023-02-15T18:29:48;19.30;;;9.33;;
70067;SDS011;57425;51.616;6.680;2023-02-15T18:32:18;22.23;;;9.43;;
70067;SDS011;57425;51.616;6.680;2023-02-15T18:34:47;25.20;;;10.20;;
70067;SDS011;57425;51.616;6.680;2023-02-15T18:37:20;18.53;;;9.07;;
70067;SDS011;57425;51.616;6.680;2023-02-15T18:39:46;29.20;;;10.75;;
70067;SDS011;57425;51.616;6.680;2023-02-15T18:44:45;25.30;;;10.03;;